createdAt,value
2022-12-11T00:01:36.390Z,20.74
2022-12-11T00:04:02.650Z,21.71
2022-12-11T00:06:28.899Z,23.12
2022-12-11T00:08:55.146Z,21.93
2022-12-11T00:11:21.413Z,21.48
2022-12-11T00:13:47.679Z,22.13
2022-12-11T00:16:13.966Z,22.72
2022-12-11T00:18:40.261Z,21.15
2022-12-11T00:21:06.535Z,20.79
2022-12-11T00:23:32.799Z,21.13
2022-12-11T00:25:59.064Z,21.43
2022-12-11T00:28:25.313Z,20.97
2022-12-11T00:30:51.578Z,21.21
2022-12-11T00:33:17.889Z,21.22
2022-12-11T00:35:44.131Z,21.25
2022-12-11T00:38:10.393Z,21.01
2022-12-11T00:40:36.657Z,21.57
2022-12-11T00:43:02.902Z,21.28
2022-12-11T00:45:29.177Z,20.60
2022-12-11T00:47:55.423Z,20.65
2022-12-11T00:50:21.697Z,20.29
2022-12-11T00:52:48.044Z,20.47
2022-12-11T00:55:14.296Z,21.32
2022-12-11T00:57:40.565Z,20.62
2022-12-11T01:00:06.830Z,20.56
2022-12-11T01:02:33.122Z,20.56
2022-12-11T01:04:59.410Z,20.71
2022-12-11T01:07:25.649Z,21.42
2022-12-11T01:09:51.904Z,20.99
2022-12-11T01:12:18.175Z,20.85
2022-12-11T01:14:44.414Z,20.45
2022-12-11T01:17:10.677Z,20.96
2022-12-11T01:19:36.918Z,21.28
2022-12-11T01:22:03.178Z,21.50
2022-12-11T01:24:29.458Z,21.02
2022-12-11T01:26:55.693Z,21.02
2022-12-11T01:29:21.933Z,20.76
2022-12-11T01:31:48.207Z,20.78
2022-12-11T01:34:14.458Z,20.60
2022-12-11T01:36:40.773Z,21.47
2022-12-11T01:39:07.041Z,21.62
2022-12-11T01:41:33.286Z,21.53
2022-12-11T01:43:59.534Z,21.09
2022-12-11T01:46:25.837Z,21.45
2022-12-11T01:48:52.170Z,21.56
2022-12-11T01:51:18.425Z,20.83
2022-12-11T01:53:44.689Z,21.15
2022-12-11T01:56:11.000Z,21.57
2022-12-11T01:58:37.276Z,21.56
2022-12-11T02:01:03.559Z,21.70
2022-12-11T02:03:29.874Z,21.90
2022-12-11T02:05:56.122Z,21.88
2022-12-11T02:08:22.439Z,21.73
2022-12-11T02:10:48.730Z,21.75
2022-12-11T02:13:15.018Z,21.05
2022-12-11T02:15:41.253Z,21.53
2022-12-11T02:18:07.491Z,21.36
2022-12-11T02:20:33.752Z,21.01
2022-12-11T02:23:00.016Z,21.19
2022-12-11T02:25:26.273Z,20.67
2022-12-11T02:27:52.550Z,21.02
2022-12-11T02:30:18.808Z,21.33
2022-12-11T02:32:45.072Z,21.35
2022-12-11T02:35:11.619Z,21.19
2022-12-11T02:37:37.977Z,21.21
2022-12-11T02:40:04.227Z,21.49
2022-12-11T02:42:30.494Z,21.98
2022-12-11T02:44:56.773Z,22.36
2022-12-11T02:47:23.013Z,22.53
2022-12-11T02:49:49.272Z,21.72
2022-12-11T02:52:15.546Z,22.42
2022-12-11T02:54:41.811Z,21.67
2022-12-11T02:57:08.082Z,21.32
2022-12-11T02:59:34.347Z,22.20
2022-12-11T03:02:00.645Z,21.56
2022-12-11T03:04:26.968Z,21.23
2022-12-11T03:06:53.231Z,21.43
2022-12-11T03:09:19.498Z,21.63
2022-12-11T03:11:45.747Z,22.10
2022-12-11T03:14:12.006Z,22.13
2022-12-11T03:16:38.316Z,22.14
2022-12-11T03:19:04.650Z,22.09
2022-12-11T03:21:30.892Z,22.13
2022-12-11T03:23:57.135Z,21.79
2022-12-11T03:26:23.393Z,21.57
2022-12-11T03:28:49.657Z,21.23
2022-12-11T03:31:15.960Z,21.80
2022-12-11T03:33:42.256Z,21.31
2022-12-11T03:36:08.522Z,21.31
2022-12-11T03:38:34.772Z,20.85
2022-12-11T03:41:01.023Z,20.59
2022-12-11T03:43:27.268Z,21.24
2022-12-11T03:45:53.544Z,21.84
2022-12-11T03:48:19.829Z,21.23
2022-12-11T03:50:46.096Z,21.40
2022-12-11T03:53:12.365Z,21.65
2022-12-11T03:55:38.628Z,22.35
2022-12-11T03:58:04.878Z,22.05
2022-12-11T04:00:31.242Z,21.94
2022-12-11T04:02:57.487Z,22.58
2022-12-11T04:05:23.762Z,23.24
2022-12-11T04:07:50.139Z,22.64
2022-12-11T04:10:16.412Z,22.10
2022-12-11T04:12:42.675Z,22.62
2022-12-11T04:15:09.323Z,22.84
2022-12-11T04:17:35.741Z,22.56
2022-12-11T04:20:02.009Z,23.12
2022-12-11T04:22:28.257Z,23.08
2022-12-11T04:24:54.513Z,23.07
2022-12-11T04:27:20.780Z,23.00
2022-12-11T04:29:47.064Z,21.98
2022-12-11T04:32:13.369Z,22.83
2022-12-11T04:34:39.629Z,23.09
2022-12-11T04:37:05.887Z,22.20
2022-12-11T04:39:32.161Z,22.80
2022-12-11T04:41:58.418Z,22.72
2022-12-11T04:44:24.682Z,22.61
2022-12-11T04:46:50.992Z,21.40
2022-12-11T04:49:17.298Z,22.12
2022-12-11T04:51:43.546Z,22.05
2022-12-11T04:54:09.781Z,21.87
2022-12-11T04:56:36.041Z,21.80
2022-12-11T04:59:02.300Z,21.50
2022-12-11T05:01:28.699Z,21.56
2022-12-11T05:03:54.977Z,21.58
2022-12-11T05:06:21.229Z,21.56
2022-12-11T05:08:47.492Z,21.84
2022-12-11T05:11:13.735Z,22.11
2022-12-11T05:13:39.997Z,21.88
2022-12-11T05:16:06.318Z,21.49
2022-12-11T05:18:32.606Z,20.76
2022-12-11T05:20:58.881Z,21.17
2022-12-11T05:23:25.149Z,20.65
2022-12-11T05:25:51.393Z,21.73
2022-12-11T05:28:17.635Z,20.63
2022-12-11T05:30:43.907Z,20.43
2022-12-11T05:33:10.231Z,20.49
2022-12-11T05:35:36.493Z,20.78
2022-12-11T05:38:02.738Z,20.15
2022-12-11T05:40:29.001Z,20.00
2022-12-11T05:42:55.274Z,20.00
2022-12-11T05:45:21.541Z,19.92
2022-12-11T05:47:47.823Z,20.04
2022-12-11T05:50:14.096Z,20.38
2022-12-11T05:52:40.365Z,22.32
2022-12-11T05:55:06.614Z,20.88
2022-12-11T05:57:32.881Z,20.95
2022-12-11T05:59:59.140Z,20.33
2022-12-11T06:02:25.461Z,21.46
2022-12-11T06:04:51.823Z,19.64
2022-12-11T06:07:18.080Z,20.07
2022-12-11T06:09:44.344Z,20.87
2022-12-11T06:12:10.600Z,20.73
2022-12-11T06:14:36.865Z,20.03
2022-12-11T06:17:03.103Z,20.35
2022-12-11T06:19:33.473Z,19.78
2022-12-11T06:22:02.938Z,20.18
2022-12-11T06:24:29.181Z,19.38
2022-12-11T06:26:55.466Z,18.69
2022-12-11T06:29:21.721Z,17.87
2022-12-11T06:31:48.045Z,18.49
2022-12-11T06:34:14.355Z,18.81
2022-12-11T06:36:40.618Z,18.14
2022-12-11T06:39:06.881Z,17.83
2022-12-11T06:41:33.148Z,17.16
2022-12-11T06:43:59.390Z,16.99
2022-12-11T06:46:25.710Z,17.40
2022-12-11T06:48:52.057Z,18.16
2022-12-11T06:51:18.345Z,19.17
2022-12-11T06:53:44.613Z,18.87
2022-12-11T06:56:10.882Z,18.70
2022-12-11T06:58:37.145Z,18.33
2022-12-11T07:01:03.408Z,18.57
2022-12-11T07:03:29.702Z,17.59
2022-12-11T07:05:55.977Z,17.46
2022-12-11T07:08:22.244Z,17.32
2022-12-11T07:10:48.519Z,16.97
2022-12-11T07:13:14.786Z,15.84
2022-12-11T07:15:41.028Z,16.34
2022-12-11T07:18:07.298Z,16.50
2022-12-11T07:20:33.561Z,16.93
2022-12-11T07:22:59.799Z,16.26
2022-12-11T07:25:26.138Z,16.87
2022-12-11T07:27:52.375Z,16.19
2022-12-11T07:30:18.621Z,16.67
2022-12-11T07:32:44.901Z,19.30
2022-12-11T07:35:11.438Z,17.03
2022-12-11T07:37:37.951Z,16.31
2022-12-11T07:40:04.189Z,15.91
2022-12-11T07:42:30.435Z,15.81
2022-12-11T07:44:56.696Z,15.96
2022-12-11T07:47:22.938Z,16.00
2022-12-11T07:49:49.177Z,15.31
2022-12-11T07:52:15.444Z,14.45
2022-12-11T07:54:41.692Z,14.69
2022-12-11T07:57:13.946Z,14.62
2022-12-11T07:59:40.513Z,14.00
2022-12-11T08:02:06.785Z,13.89
2022-12-11T08:04:33.069Z,13.77
2022-12-11T08:06:59.324Z,13.86
2022-12-11T08:09:25.588Z,14.29
2022-12-11T08:11:51.895Z,14.76
2022-12-11T08:14:18.184Z,13.76
2022-12-11T08:16:44.459Z,13.77
2022-12-11T08:19:10.924Z,13.75
2022-12-11T08:21:37.166Z,13.21
2022-12-11T08:24:03.405Z,14.11
2022-12-11T08:26:29.653Z,12.96
2022-12-11T08:28:55.897Z,12.74
2022-12-11T08:31:22.184Z,12.30
2022-12-11T08:33:48.455Z,13.20
2022-12-11T08:36:14.713Z,13.18
2022-12-11T08:38:40.970Z,12.97
2022-12-11T08:41:07.203Z,13.71
2022-12-11T08:43:33.459Z,14.17
2022-12-11T08:45:59.788Z,14.88
2022-12-11T08:48:26.109Z,14.64
2022-12-11T08:50:52.351Z,13.98
2022-12-11T08:53:18.605Z,13.70
2022-12-11T08:55:44.867Z,14.77
2022-12-11T08:58:11.119Z,14.22
2022-12-11T09:00:37.383Z,13.35
2022-12-11T09:03:05.338Z,13.87
2022-12-11T09:05:34.700Z,14.02
2022-12-11T09:08:01.203Z,14.05
2022-12-11T09:10:27.593Z,14.04
2022-12-11T09:12:53.861Z,14.37
2022-12-11T09:15:20.125Z,14.45
2022-12-11T09:17:46.389Z,14.64
2022-12-11T09:20:12.639Z,14.20
2022-12-11T09:22:38.877Z,13.70
2022-12-11T09:25:05.128Z,13.40
2022-12-11T09:27:31.408Z,13.23
2022-12-11T09:29:57.654Z,13.30
2022-12-11T09:32:23.889Z,13.40
2022-12-11T09:34:50.158Z,14.16
2022-12-11T09:37:16.424Z,14.33
2022-12-11T09:39:42.665Z,13.38
2022-12-11T09:42:08.921Z,14.13
2022-12-11T09:44:35.176Z,15.26
2022-12-11T09:47:01.435Z,15.34
2022-12-11T09:49:27.685Z,15.52
2022-12-11T09:51:53.940Z,16.22
2022-12-11T09:54:20.189Z,14.76
2022-12-11T09:56:46.434Z,14.96
2022-12-11T09:59:12.676Z,16.26
2022-12-11T10:01:38.978Z,15.79
2022-12-11T10:04:05.245Z,15.28
2022-12-11T10:06:31.513Z,20.53
2022-12-11T10:08:57.775Z,18.25
2022-12-11T10:11:24.025Z,21.21
2022-12-11T10:13:50.280Z,18.29
2022-12-11T10:16:16.594Z,15.04
2022-12-11T10:18:42.897Z,16.55
2022-12-11T10:21:09.165Z,16.38
2022-12-11T10:23:35.437Z,21.13
2022-12-11T10:26:01.725Z,17.57
2022-12-11T10:28:27.972Z,19.58
2022-12-11T10:30:54.240Z,17.27
2022-12-11T10:33:20.558Z,16.84
2022-12-11T10:35:46.826Z,15.98
2022-12-11T10:38:13.073Z,16.65
2022-12-11T10:40:39.343Z,15.94
2022-12-11T10:43:05.586Z,15.95
2022-12-11T10:45:31.839Z,19.38
2022-12-11T10:47:58.083Z,17.64
2022-12-11T10:50:24.336Z,16.83
2022-12-11T10:52:50.582Z,16.35
2022-12-11T10:55:16.853Z,16.82
2022-12-11T10:57:43.094Z,17.47
2022-12-11T11:00:09.340Z,17.20
2022-12-11T11:02:35.631Z,18.44
2022-12-11T11:05:01.940Z,18.23
2022-12-11T11:07:28.187Z,17.30
2022-12-11T11:09:54.445Z,17.81
2022-12-11T11:12:20.690Z,16.62
2022-12-11T11:14:46.934Z,16.06
2022-12-11T11:17:13.199Z,15.37
2022-12-11T11:19:39.447Z,16.12
2022-12-11T11:22:05.693Z,15.94
2022-12-11T11:24:31.938Z,15.76
2022-12-11T11:27:13.161Z,15.85
2022-12-11T11:29:39.878Z,16.30
2022-12-11T11:32:06.123Z,17.71
2022-12-11T11:34:32.381Z,15.59
2022-12-11T11:36:58.638Z,16.17
2022-12-11T11:39:24.888Z,20.26
2022-12-11T11:41:51.158Z,17.79
2022-12-11T11:44:17.405Z,18.17
2022-12-11T11:46:43.682Z,21.71
2022-12-11T11:49:09.977Z,18.01
2022-12-11T11:51:36.212Z,15.31
2022-12-11T11:54:02.467Z,16.25
2022-12-11T11:56:28.712Z,16.82
2022-12-11T11:58:54.947Z,16.85
2022-12-11T12:01:21.207Z,16.85
2022-12-11T12:03:47.468Z,17.14
2022-12-11T12:06:15.371Z,17.57
2022-12-11T12:08:41.753Z,16.79
2022-12-11T12:11:08.008Z,16.01
2022-12-11T12:13:50.459Z,15.74
2022-12-11T12:16:50.529Z,16.81
2022-12-11T12:19:03.277Z,17.51
2022-12-11T12:21:29.536Z,20.13
2022-12-11T12:23:55.789Z,17.32
2022-12-11T12:26:22.045Z,18.26
2022-12-11T12:28:48.334Z,17.01
2022-12-11T12:31:14.619Z,16.35
2022-12-11T12:33:40.877Z,16.73
2022-12-11T12:36:07.473Z,16.94
2022-12-11T12:38:33.805Z,16.45
2022-12-11T12:41:00.046Z,17.67
2022-12-11T12:43:26.277Z,16.44
2022-12-11T12:45:52.665Z,16.58
2022-12-11T12:48:18.962Z,18.86
2022-12-11T12:50:45.206Z,17.46
2022-12-11T12:53:11.446Z,15.94
2022-12-11T12:55:37.701Z,16.07
2022-12-11T12:58:03.961Z,17.45
2022-12-11T13:00:30.216Z,17.47
2022-12-11T13:02:56.453Z,17.75
2022-12-11T13:05:22.691Z,16.94
2022-12-11T13:07:54.001Z,17.76
2022-12-11T13:10:20.748Z,17.39
2022-12-11T13:12:47.009Z,17.41
2022-12-11T13:15:13.447Z,15.71
2022-12-11T13:17:39.817Z,15.97
2022-12-11T13:20:06.052Z,15.34
2022-12-11T13:22:32.312Z,15.38
2022-12-11T13:24:58.570Z,15.74
2022-12-11T13:27:24.833Z,15.49
2022-12-11T13:29:51.070Z,16.03
2022-12-11T13:32:17.308Z,15.73
2022-12-11T13:34:43.593Z,16.45
2022-12-11T13:37:09.834Z,16.80
2022-12-11T13:39:36.071Z,16.78
2022-12-11T13:42:02.345Z,16.71
2022-12-11T13:44:28.591Z,16.72
2022-12-11T13:46:54.841Z,15.98
2022-12-11T13:49:21.086Z,16.47
2022-12-11T13:51:47.332Z,16.01
2022-12-11T13:54:16.642Z,16.32
2022-12-11T13:56:43.661Z,16.82
2022-12-11T13:59:09.916Z,17.65
2022-12-11T14:01:36.191Z,18.81
2022-12-11T14:04:02.467Z,24.48
2022-12-11T14:06:28.728Z,18.74
2022-12-11T14:08:54.993Z,19.05
2022-12-11T14:11:21.244Z,19.13
2022-12-11T14:13:47.487Z,18.47
2022-12-11T14:16:13.771Z,18.61
2022-12-11T14:18:40.026Z,18.34
2022-12-11T14:21:06.260Z,18.85
2022-12-11T14:23:32.525Z,18.45
2022-12-11T14:25:58.796Z,18.07
2022-12-11T14:28:25.064Z,16.73
2022-12-11T14:30:51.328Z,17.51
2022-12-11T14:33:17.579Z,17.39
2022-12-11T14:35:43.860Z,16.85
2022-12-11T14:38:10.123Z,16.58
2022-12-11T14:40:36.370Z,16.70
2022-12-11T14:43:02.614Z,16.00
2022-12-11T14:45:28.918Z,16.43
2022-12-11T14:47:55.208Z,16.20
2022-12-11T14:50:21.468Z,16.59
2022-12-11T14:52:47.715Z,20.27
2022-12-11T14:55:13.977Z,18.99
2022-12-11T14:57:40.232Z,19.09
2022-12-11T15:00:06.479Z,18.15
2022-12-11T15:02:32.771Z,19.32
2022-12-11T15:04:59.054Z,18.88
2022-12-11T15:07:25.310Z,18.13
2022-12-11T15:09:51.549Z,20.59
2022-12-11T15:12:17.804Z,18.79
2022-12-11T15:14:44.050Z,20.56
2022-12-11T15:17:10.318Z,22.93
2022-12-11T15:19:36.573Z,23.43
2022-12-11T15:22:02.822Z,19.94
2022-12-11T15:24:29.085Z,20.11
2022-12-11T15:26:55.334Z,20.69
2022-12-11T15:29:21.589Z,22.45
2022-12-11T15:31:47.861Z,20.23
2022-12-11T15:34:14.105Z,22.85
2022-12-11T15:36:40.345Z,23.34
2022-12-11T15:39:06.604Z,21.16
2022-12-11T15:41:32.867Z,20.42
2022-12-11T15:43:59.454Z,25.19
2022-12-11T15:46:25.812Z,23.37
2022-12-11T15:48:52.102Z,21.09
2022-12-11T15:51:18.353Z,21.52
2022-12-11T15:53:44.609Z,20.55
2022-12-11T15:56:10.873Z,22.22
2022-12-11T15:58:37.125Z,22.86
2022-12-11T16:01:03.441Z,22.88
2022-12-11T16:03:29.685Z,22.50
2022-12-11T16:05:55.942Z,22.52
2022-12-11T16:08:22.311Z,21.22
2022-12-11T16:10:48.601Z,23.10
2022-12-11T16:13:14.865Z,25.51
2022-12-11T16:15:41.146Z,30.06
2022-12-11T16:18:07.434Z,24.87
2022-12-11T16:20:33.700Z,25.50
2022-12-11T16:22:59.936Z,25.98
2022-12-11T16:25:26.197Z,24.78
2022-12-11T16:27:52.438Z,22.03
2022-12-11T16:30:18.693Z,23.73
2022-12-11T16:32:45.049Z,22.73
2022-12-11T16:35:11.514Z,23.43
2022-12-11T16:37:37.879Z,21.59
2022-12-11T16:40:04.153Z,21.08
2022-12-11T16:42:30.413Z,19.78
2022-12-11T16:44:56.658Z,20.54
2022-12-11T16:47:22.920Z,20.64
2022-12-11T16:49:49.188Z,21.01
2022-12-11T16:52:20.535Z,19.98
2022-12-11T16:54:48.445Z,19.49
2022-12-11T16:57:14.701Z,19.56
2022-12-11T16:59:40.969Z,19.96
2022-12-11T17:02:07.316Z,19.25
2022-12-11T17:04:33.598Z,19.73
2022-12-11T17:06:59.873Z,20.39
2022-12-11T17:09:26.120Z,20.76
2022-12-11T17:11:52.377Z,20.85
2022-12-11T17:14:18.634Z,22.22
2022-12-11T17:16:44.878Z,22.41
2022-12-11T17:19:11.139Z,23.94
2022-12-11T17:21:37.382Z,25.65
2022-12-11T17:24:03.649Z,25.83
2022-12-11T17:26:29.905Z,24.94
2022-12-11T17:28:56.155Z,25.56
2022-12-11T17:31:22.528Z,32.72
2022-12-11T17:33:48.842Z,43.55
2022-12-11T17:36:15.124Z,46.38
2022-12-11T17:38:41.367Z,49.09
2022-12-11T17:41:07.615Z,45.36
2022-12-11T17:43:33.873Z,36.96
2022-12-11T17:46:00.194Z,27.93
2022-12-11T17:48:26.548Z,26.27
2022-12-11T17:50:52.822Z,25.57
2022-12-11T17:53:19.086Z,26.06
2022-12-11T17:55:45.376Z,25.95
2022-12-11T17:58:11.650Z,26.00
2022-12-11T18:00:37.910Z,25.42
2022-12-11T18:03:04.162Z,25.73
2022-12-11T18:05:30.424Z,25.84
2022-12-11T18:07:58.123Z,24.87
2022-12-11T18:10:24.641Z,27.10
2022-12-11T18:12:50.889Z,27.49
2022-12-11T18:15:17.130Z,27.42
2022-12-11T18:17:43.393Z,27.47
2022-12-11T18:20:09.660Z,28.50
2022-12-11T18:22:35.914Z,28.43
2022-12-11T18:25:09.292Z,29.63
2022-12-11T18:27:36.000Z,30.38
2022-12-11T18:30:02.354Z,28.59
2022-12-11T18:32:28.610Z,29.17
2022-12-11T18:34:54.869Z,28.65
2022-12-11T18:37:26.214Z,28.13
2022-12-11T18:39:54.091Z,28.66
2022-12-11T18:42:35.639Z,29.48
2022-12-11T18:45:01.912Z,28.87
2022-12-11T18:47:28.173Z,29.30
2022-12-11T18:49:54.441Z,29.11
2022-12-11T18:52:20.700Z,30.21
2022-12-11T18:54:46.963Z,35.00
2022-12-11T18:57:13.233Z,40.78
2022-12-11T18:59:39.482Z,38.62
2022-12-11T19:02:05.920Z,37.34
2022-12-11T19:04:32.323Z,33.12
2022-12-11T19:06:58.583Z,30.68
2022-12-11T19:09:24.849Z,29.45
2022-12-11T19:11:51.098Z,28.57
2022-12-11T19:14:17.349Z,28.05
2022-12-11T19:16:43.606Z,28.05
2022-12-11T19:19:09.870Z,28.28
2022-12-11T19:21:36.115Z,28.39
2022-12-11T19:24:02.378Z,28.29
2022-12-11T19:26:28.641Z,27.55
2022-12-11T19:29:00.894Z,28.45
2022-12-11T19:31:27.197Z,27.84
2022-12-11T19:33:53.468Z,27.76
2022-12-11T19:36:19.725Z,27.99
2022-12-11T19:38:46.065Z,28.64
2022-12-11T19:41:12.324Z,27.59
2022-12-11T19:43:38.575Z,28.57
2022-12-11T19:46:04.819Z,29.42
2022-12-11T19:48:31.071Z,30.23
2022-12-11T19:50:57.311Z,29.71
2022-12-11T19:53:23.593Z,30.16
2022-12-11T19:55:49.858Z,29.06
2022-12-11T19:58:16.103Z,29.51
2022-12-11T20:00:42.388Z,29.51
2022-12-11T20:03:08.673Z,28.57
2022-12-11T20:05:34.953Z,29.62
2022-12-11T20:08:27.336Z,29.80
2022-12-11T20:10:47.422Z,30.19
2022-12-11T20:13:13.671Z,31.06
2022-12-11T20:15:39.931Z,30.66
2022-12-11T20:18:06.215Z,29.86
2022-12-11T20:20:32.463Z,28.81
2022-12-11T20:22:58.914Z,29.84
2022-12-11T20:25:25.174Z,31.10
2022-12-11T20:27:51.434Z,30.74
2022-12-11T20:30:17.677Z,29.96
2022-12-11T20:32:43.914Z,29.46
2022-12-11T20:35:10.474Z,29.39
2022-12-11T20:37:36.921Z,28.63
2022-12-11T20:40:03.193Z,28.44
2022-12-11T20:42:29.444Z,28.41
2022-12-11T20:44:55.705Z,29.02
2022-12-11T20:47:21.960Z,31.28
2022-12-11T20:49:48.221Z,29.95
2022-12-11T20:52:14.457Z,29.76
2022-12-11T20:54:40.710Z,29.81
2022-12-11T20:57:06.973Z,29.49
2022-12-11T20:59:33.230Z,29.68
2022-12-11T21:01:59.517Z,27.68
2022-12-11T21:04:25.837Z,27.72
2022-12-11T21:06:52.089Z,28.56
2022-12-11T21:09:18.325Z,27.65
2022-12-11T21:11:44.566Z,27.50
2022-12-11T21:14:10.830Z,27.41
2022-12-11T21:16:37.137Z,27.50
2022-12-11T21:19:03.443Z,28.05
2022-12-11T21:21:29.725Z,28.02
2022-12-11T21:23:55.983Z,26.27
2022-12-11T21:26:22.234Z,26.32
2022-12-11T21:28:48.488Z,26.82
2022-12-11T21:31:14.852Z,25.04
2022-12-11T21:33:41.167Z,25.57
2022-12-11T21:36:07.410Z,26.53
2022-12-11T21:38:33.666Z,26.35
2022-12-11T21:40:59.913Z,25.60
2022-12-11T21:43:26.155Z,25.84
2022-12-11T21:46:00.976Z,26.81
2022-12-11T21:48:27.895Z,26.53
2022-12-11T21:50:54.142Z,25.73
2022-12-11T21:53:20.386Z,29.36
2022-12-11T21:55:46.653Z,27.80
2022-12-11T21:58:12.913Z,26.62
2022-12-11T22:00:39.168Z,26.81
2022-12-11T22:03:05.415Z,26.69
2022-12-11T22:05:31.685Z,27.52
2022-12-11T22:07:58.012Z,28.46
2022-12-11T22:10:24.317Z,27.95
2022-12-11T22:12:50.582Z,29.88
2022-12-11T22:15:16.838Z,32.20
2022-12-11T22:17:43.086Z,29.85
2022-12-11T22:20:09.330Z,30.67
2022-12-11T22:22:35.577Z,28.93
2022-12-11T22:25:01.840Z,28.87
2022-12-11T22:27:28.097Z,28.88
2022-12-11T22:29:54.366Z,30.38
2022-12-11T22:32:20.611Z,29.74
2022-12-11T22:34:46.975Z,28.51
2022-12-11T22:37:13.217Z,31.63
2022-12-11T22:39:39.476Z,33.16
2022-12-11T22:42:05.731Z,30.73
2022-12-11T22:44:31.985Z,33.89
2022-12-11T22:46:58.238Z,32.56
2022-12-11T22:49:24.617Z,29.73
2022-12-11T22:51:50.878Z,29.08
2022-12-11T22:54:17.129Z,29.57
2022-12-11T22:56:43.403Z,29.38
2022-12-11T22:59:09.650Z,29.20
2022-12-11T23:01:35.897Z,29.71
2022-12-11T23:04:02.168Z,29.65
2022-12-11T23:06:28.427Z,30.37
2022-12-11T23:08:54.745Z,29.42
2022-12-11T23:11:21.020Z,33.56
2022-12-11T23:13:47.288Z,35.46
2022-12-11T23:16:13.550Z,33.38
2022-12-11T23:18:40.897Z,32.19
2022-12-11T23:21:07.176Z,31.82
2022-12-11T23:23:33.435Z,32.61
2022-12-11T23:25:59.678Z,30.06
2022-12-11T23:28:25.920Z,28.58
2022-12-11T23:30:52.255Z,30.65
2022-12-11T23:33:18.546Z,30.27
2022-12-11T23:35:44.790Z,29.54
2022-12-11T23:38:11.060Z,28.99
2022-12-11T23:40:37.407Z,28.84
2022-12-11T23:43:03.668Z,28.68
2022-12-11T23:45:29.906Z,29.06
2022-12-11T23:47:56.150Z,28.83
2022-12-11T23:50:22.456Z,29.36
2022-12-11T23:52:48.744Z,29.68
2022-12-11T23:55:15.150Z,30.65
2022-12-11T23:57:41.504Z,30.41
